PWSweather.com
Personal Weather Stations
Station Observations
GJCMGHG
Düsseldorf, MoenchengladbachDE 41199

DüsseldorfMoenchengladbachDE 41199

Lat: 51.13588, Lon: 6.46554

Elevation: 279

Station Type: Davis Vantage Pro 2

http://www.livewetter.org

Latest ConditionsUpdated 7:37:02 AM GMT+01:01 Friday, May 24, 2019
Currently Today's Max Today's Min Today's Average
Temperature 61.2°F16.2°C 61.2°F16.2°C 52.9°F11.6°C 55.4°F13.0°C
Dew Point 48.0°F8.9°C 49.8°F9.9°C 43.9°F6.6°C 45.5°F7.5°C
Winds Calm Calm Calm -Calm - - Calm Calm
Wind Gusts -- 0.9 mph1.4 kmh - -
Humidity 62% 75% 62% 69%
Pressure 30.02 in1016.6 mb 30.04 in1017.3 mb 30.00 in1015.9 mb -
Hour Temp Dew Point Humidity Winds Wind Gusts Pressure Precip Precip Rate Daily Precip Total
07:37 AM 61.2°F16.2°C 48.0°F8.9°C 62% Calm Calm -- 30.02 in1016.6 mb - 0.00 in0.0 mm 0.00 in0.0 mm
07:32 AM 60.6°F15.9°C 48.7°F9.3°C 65% Calm Calm 0.9 mph1.4 kmh 30.03 in1016.9 mb - 0.00 in0.0 mm 0.00 in0.0 mm
07:27 AM 60.3°F15.7°C 49.6°F9.8°C 68% Calm Calm 0.9 mph1.4 kmh 30.03 in1016.9 mb - 0.00 in0.0 mm 0.00 in0.0 mm
07:22 AM 59.5°F15.3°C 49.8°F9.9°C 70% Calm Calm -- 30.03 in1016.9 mb - 0.00 in0.0 mm 0.00 in0.0 mm
07:17 AM 59.2°F15.1°C 49.5°F9.7°C 70% Calm Calm -- 30.02 in1016.6 mb - 0.00 in0.0 mm 0.00 in0.0 mm
07:12 AM 58.6°F14.8°C 47.7°F8.7°C 67% Calm Calm -- 30.02 in1016.6 mb - 0.00 in0.0 mm 0.00 in0.0 mm
07:07 AM 58.3°F14.6°C 47.3°F8.5°C 67% Calm Calm -- 30.02 in1016.6 mb - 0.00 in0.0 mm 0.00 in0.0 mm
07:02 AM 58.3°F14.6°C 46.9°F8.3°C 66% Calm Calm -- 30.02 in1016.6 mb - 0.00 in0.0 mm 0.00 in0.0 mm
06:57 AM 58.3°F14.6°C 46.9°F8.3°C 66% Calm Calm -- 30.02 in1016.6 mb - 0.00 in0.0 mm 0.00 in0.0 mm
06:52 AM 58.3°F14.6°C 46.9°F8.3°C 66% Calm Calm -- 30.02 in1016.6 mb - 0.00 in0.0 mm 0.00 in0.0 mm
06:47 AM 58.3°F14.6°C 46.9°F8.3°C 66% Calm Calm -- 30.02 in1016.6 mb - 0.00 in0.0 mm 0.00 in0.0 mm
06:42 AM 58.3°F14.6°C 46.9°F8.3°C 66% Calm Calm -- 30.02 in1016.6 mb - 0.00 in0.0 mm 0.00 in0.0 mm
06:37 AM 58.3°F14.6°C 47.3°F8.5°C 67% Calm Calm -- 30.01 in1016.3 mb - 0.00 in0.0 mm 0.00 in0.0 mm
06:32 AM 57.9°F14.4°C 46.6°F8.1°C 66% Calm Calm -- 30.01 in1016.3 mb - 0.00 in0.0 mm 0.00 in0.0 mm
06:27 AM 57.9°F14.4°C 46.9°F8.3°C 67% Calm Calm -- 30.01 in1016.3 mb - 0.00 in0.0 mm 0.00 in0.0 mm
06:22 AM 57.6°F14.2°C 46.8°F8.2°C 67% Calm Calm -- 30.01 in1016.3 mb - 0.00 in0.0 mm 0.00 in0.0 mm
06:17 AM 57.0°F13.9°C 46.6°F8.1°C 68% Calm Calm -- 30.01 in1016.3 mb - 0.00 in0.0 mm 0.00 in0.0 mm
06:12 AM 56.8°F13.8°C 46.4°F8.0°C 68% Calm Calm -- 30.01 in1016.3 mb - 0.00 in0.0 mm 0.00 in0.0 mm
06:07 AM 56.5°F13.6°C 46.4°F8.0°C 69% Calm Calm -- 30.01 in1016.3 mb - 0.00 in0.0 mm 0.00 in0.0 mm
06:02 AM 56.1°F13.4°C 46.0°F7.8°C 69% Calm Calm -- 30.01 in1016.3 mb - 0.00 in0.0 mm 0.00 in0.0 mm
05:57 AM 55.8°F13.2°C 45.7°F7.6°C 69% Calm Calm -- 30.01 in1016.3 mb - 0.00 in0.0 mm 0.00 in0.0 mm
05:52 AM 55.4°F13.0°C 45.3°F7.4°C 69% Calm Calm -- 30.00 in1015.9 mb - 0.00 in0.0 mm 0.00 in0.0 mm
05:47 AM 55.2°F12.9°C 45.7°F7.6°C 70% Calm Calm -- 30.01 in1016.3 mb - 0.00 in0.0 mm 0.00 in0.0 mm
05:42 AM 55.2°F12.9°C 46.0°F7.8°C 71% Calm Calm -- 30.01 in1016.3 mb - 0.00 in0.0 mm 0.00 in0.0 mm
05:37 AM 55.0°F12.8°C 45.9°F7.7°C 71% Calm Calm -- 30.01 in1016.3 mb - 0.00 in0.0 mm 0.00 in0.0 mm
05:32 AM 55.0°F12.8°C 45.9°F7.7°C 71% Calm Calm -- 30.01 in1016.3 mb - 0.00 in0.0 mm 0.00 in0.0 mm
05:27 AM 55.0°F12.8°C 45.9°F7.7°C 71% Calm Calm -- 30.01 in1016.3 mb - 0.00 in0.0 mm 0.00 in0.0 mm
05:22 AM 55.0°F12.8°C 45.9°F7.7°C 71% Calm Calm -- 30.01 in1016.3 mb - 0.00 in0.0 mm 0.00 in0.0 mm
05:17 AM 55.0°F12.8°C 45.9°F7.7°C 71% Calm Calm -- 30.01 in1016.3 mb - 0.00 in0.0 mm 0.00 in0.0 mm
05:12 AM 55.0°F12.8°C 45.5°F7.5°C 70% Calm Calm -- 30.01 in1016.3 mb - 0.00 in0.0 mm 0.00 in0.0 mm
05:07 AM 54.9°F12.7°C 45.3°F7.4°C 70% Calm Calm -- 30.01 in1016.3 mb - 0.00 in0.0 mm 0.00 in0.0 mm
05:02 AM 54.9°F12.7°C 45.3°F7.4°C 70% Calm Calm -- 30.01 in1016.3 mb - 0.00 in0.0 mm 0.00 in0.0 mm
04:57 AM 54.9°F12.7°C 45.3°F7.4°C 70% Calm Calm -- 30.01 in1016.3 mb - 0.00 in0.0 mm 0.00 in0.0 mm
04:52 AM 55.0°F12.8°C 45.1°F7.3°C 69% Calm Calm -- 30.01 in1016.3 mb - 0.00 in0.0 mm 0.00 in0.0 mm
04:47 AM 55.0°F12.8°C 45.1°F7.3°C 69% Calm Calm -- 30.01 in1016.3 mb - 0.00 in0.0 mm 0.00 in0.0 mm
04:42 AM 55.2°F12.9°C 45.1°F7.3°C 69% Calm Calm -- 30.00 in1015.9 mb - 0.00 in0.0 mm 0.00 in0.0 mm
04:37 AM 55.2°F12.9°C 44.8°F7.1°C 68% Calm Calm -- 30.00 in1015.9 mb - 0.00 in0.0 mm 0.00 in0.0 mm
04:32 AM 55.2°F12.9°C 44.8°F7.1°C 68% Calm Calm -- 30.00 in1015.9 mb - 0.00 in0.0 mm 0.00 in0.0 mm
04:27 AM 55.2°F12.9°C 44.8°F7.1°C 68% Calm Calm -- 30.00 in1015.9 mb - 0.00 in0.0 mm 0.00 in0.0 mm
04:22 AM 55.2°F12.9°C 44.8°F7.1°C 68% Calm Calm -- 30.00 in1015.9 mb - 0.00 in0.0 mm 0.00 in0.0 mm
04:17 AM 54.9°F12.7°C 44.4°F6.9°C 68% Calm Calm -- 30.00 in1015.9 mb - 0.00 in0.0 mm 0.00 in0.0 mm
04:12 AM 54.3°F12.4°C 44.8°F7.1°C 70% Calm Calm -- 30.00 in1015.9 mb - 0.00 in0.0 mm 0.00 in0.0 mm
04:07 AM 54.0°F12.2°C 44.8°F7.1°C 71% Calm Calm -- 30.01 in1016.3 mb - 0.00 in0.0 mm 0.00 in0.0 mm
04:02 AM 53.4°F11.9°C 44.2°F6.8°C 71% Calm Calm -- 30.01 in1016.3 mb - 0.00 in0.0 mm 0.00 in0.0 mm
03:57 AM 53.4°F11.9°C 44.6°F7.0°C 72% Calm Calm -- 30.01 in1016.3 mb - 0.00 in0.0 mm 0.00 in0.0 mm
03:52 AM 53.4°F11.9°C 44.6°F7.0°C 72% Calm Calm -- 30.01 in1016.3 mb - 0.00 in0.0 mm 0.00 in0.0 mm
03:47 AM 53.8°F12.1°C 45.0°F7.2°C 72% Calm Calm -- 30.01 in1016.3 mb - 0.00 in0.0 mm 0.00 in0.0 mm
03:42 AM 54.0°F12.2°C 44.8°F7.1°C 71% Calm Calm -- 30.01 in1016.3 mb - 0.00 in0.0 mm 0.00 in0.0 mm
03:37 AM 54.3°F12.4°C 44.8°F7.1°C 70% Calm Calm -- 30.01 in1016.3 mb - 0.00 in0.0 mm 0.00 in0.0 mm
03:32 AM 54.7°F12.6°C 44.8°F7.1°C 69% Calm Calm -- 30.01 in1016.3 mb - 0.00 in0.0 mm 0.00 in0.0 mm
03:27 AM 54.9°F12.7°C 45.0°F7.2°C 69% Calm Calm -- 30.01 in1016.3 mb - 0.00 in0.0 mm 0.00 in0.0 mm
03:22 AM 54.9°F12.7°C 44.4°F6.9°C 68% Calm Calm -- 30.01 in1016.3 mb - 0.00 in0.0 mm 0.00 in0.0 mm
03:17 AM 54.9°F12.7°C 44.4°F6.9°C 68% Calm Calm -- 30.01 in1016.3 mb - 0.00 in0.0 mm 0.00 in0.0 mm
03:12 AM 54.7°F12.6°C 44.2°F6.8°C 68% Calm Calm -- 30.01 in1016.3 mb - 0.00 in0.0 mm 0.00 in0.0 mm
03:07 AM 54.7°F12.6°C 44.2°F6.8°C 68% Calm Calm -- 30.01 in1016.3 mb - 0.00 in0.0 mm 0.00 in0.0 mm
03:02 AM 54.7°F12.6°C 44.2°F6.8°C 68% Calm Calm -- 30.02 in1016.6 mb - 0.00 in0.0 mm 0.00 in0.0 mm
02:57 AM 54.7°F12.6°C 44.8°F7.1°C 69% Calm Calm -- 30.02 in1016.6 mb - 0.00 in0.0 mm 0.00 in0.0 mm
02:52 AM 54.5°F12.5°C 44.6°F7.0°C 69% Calm Calm -- 30.02 in1016.6 mb - 0.00 in0.0 mm 0.00 in0.0 mm
02:47 AM 54.5°F12.5°C 44.6°F7.0°C 69% Calm Calm -- 30.02 in1016.6 mb - 0.00 in0.0 mm 0.00 in0.0 mm
02:42 AM 54.3°F12.4°C 44.4°F6.9°C 69% Calm Calm -- 30.02 in1016.6 mb - 0.00 in0.0 mm 0.00 in0.0 mm
02:37 AM 54.3°F12.4°C 44.8°F7.1°C 70% Calm Calm -- 30.02 in1016.6 mb - 0.00 in0.0 mm 0.00 in0.0 mm
02:32 AM 54.3°F12.4°C 44.8°F7.1°C 70% Calm Calm -- 30.02 in1016.6 mb - 0.00 in0.0 mm 0.00 in0.0 mm
02:27 AM 54.5°F12.5°C 44.6°F7.0°C 69% Calm Calm -- 30.02 in1016.6 mb - 0.00 in0.0 mm 0.00 in0.0 mm
02:22 AM 54.3°F12.4°C 44.8°F7.1°C 70% Calm Calm -- 30.02 in1016.6 mb - 0.00 in0.0 mm 0.00 in0.0 mm
02:17 AM 54.0°F12.2°C 44.4°F6.9°C 70% Calm Calm -- 30.02 in1016.6 mb - 0.00 in0.0 mm 0.00 in0.0 mm
02:12 AM 53.4°F11.9°C 43.9°F6.6°C 70% Calm Calm -- 30.02 in1016.6 mb - 0.00 in0.0 mm 0.00 in0.0 mm
02:07 AM 53.1°F11.7°C 44.2°F6.8°C 72% Calm Calm -- 30.02 in1016.6 mb - 0.00 in0.0 mm 0.00 in0.0 mm
02:02 AM 52.9°F11.6°C 44.8°F7.1°C 74% Calm Calm -- 30.02 in1016.6 mb - 0.00 in0.0 mm 0.00 in0.0 mm
01:57 AM 52.9°F11.6°C 44.8°F7.1°C 74% Calm Calm -- 30.03 in1016.9 mb - 0.00 in0.0 mm 0.00 in0.0 mm
01:52 AM 53.1°F11.7°C 45.3°F7.4°C 75% Calm Calm -- 30.03 in1016.9 mb - 0.00 in0.0 mm 0.00 in0.0 mm
01:47 AM 53.2°F11.8°C 45.5°F7.5°C 75% Calm Calm -- 30.03 in1016.9 mb - 0.00 in0.0 mm 0.00 in0.0 mm
01:42 AM 53.4°F11.9°C 45.3°F7.4°C 74% Calm Calm -- 30.03 in1016.9 mb - 0.00 in0.0 mm 0.00 in0.0 mm
01:37 AM 53.6°F12.0°C 45.1°F7.3°C 73% Calm Calm -- 30.03 in1016.9 mb - 0.00 in0.0 mm 0.00 in0.0 mm
01:32 AM 54.0°F12.2°C 44.8°F7.1°C 71% Calm Calm -- 30.03 in1016.9 mb - 0.00 in0.0 mm 0.00 in0.0 mm
01:27 AM 54.0°F12.2°C 44.8°F7.1°C 71% Calm Calm -- 30.03 in1016.9 mb - 0.00 in0.0 mm 0.00 in0.0 mm
01:22 AM 54.1°F12.3°C 44.6°F7.0°C 70% Calm Calm -- 30.03 in1016.9 mb - 0.00 in0.0 mm 0.00 in0.0 mm
01:17 AM 54.3°F12.4°C 44.4°F6.9°C 69% Calm Calm -- 30.03 in1016.9 mb - 0.00 in0.0 mm 0.00 in0.0 mm
01:12 AM 54.3°F12.4°C 44.4°F6.9°C 69% Calm Calm -- 30.04 in1017.3 mb - 0.00 in0.0 mm 0.00 in0.0 mm
01:07 AM 54.5°F12.5°C 45.0°F7.2°C 70% Calm Calm -- 30.04 in1017.3 mb - 0.00 in0.0 mm 0.00 in0.0 mm
01:02 AM 54.9°F12.7°C 46.0°F7.8°C 72% Calm Calm -- 30.04 in1017.3 mb - 0.00 in0.0 mm 0.00 in0.0 mm
12:57 AM 55.0°F12.8°C 45.5°F7.5°C 70% Calm Calm -- 30.04 in1017.3 mb - 0.00 in0.0 mm 0.00 in0.0 mm
12:52 AM 55.0°F12.8°C 45.1°F7.3°C 69% Calm Calm -- 30.04 in1017.3 mb - 0.00 in0.0 mm 0.00 in0.0 mm
12:47 AM 55.0°F12.8°C 44.2°F6.8°C 67% Calm Calm -- 30.04 in1017.3 mb - 0.00 in0.0 mm 0.00 in0.0 mm
12:42 AM 55.2°F12.9°C 44.8°F7.1°C 68% Calm Calm -- 30.04 in1017.3 mb - 0.00 in0.0 mm 0.00 in0.0 mm
12:37 AM 55.4°F13.0°C 45.3°F7.4°C 69% Calm Calm -- 30.04 in1017.3 mb - 0.00 in0.0 mm 0.00 in0.0 mm
12:32 AM 55.6°F13.1°C 46.0°F7.8°C 70% Calm Calm -- 30.04 in1017.3 mb - 0.00 in0.0 mm 0.00 in0.0 mm
12:27 AM 55.8°F13.2°C 46.0°F7.8°C 70% Calm Calm -- 30.04 in1017.3 mb - 0.00 in0.0 mm 0.00 in0.0 mm
12:22 AM 55.4°F13.0°C 45.0°F7.2°C 68% Calm Calm -- 30.04 in1017.3 mb - 0.00 in0.0 mm 0.00 in0.0 mm
12:17 AM 54.9°F12.7°C 44.1°F6.7°C 67% Calm Calm -- 30.04 in1017.3 mb - 0.00 in0.0 mm 0.00 in0.0 mm
12:12 AM 54.5°F12.5°C 45.7°F7.6°C 72% Calm Calm -- 30.04 in1017.3 mb - 0.00 in0.0 mm 0.00 in0.0 mm
12:07 AM 54.5°F12.5°C 46.0°F7.8°C 73% Calm Calm -- 30.04 in1017.3 mb - 0.00 in0.0 mm 0.00 in0.0 mm
12:02 AM 54.5°F12.5°C 46.0°F7.8°C 73% Calm Calm -- 30.04 in1017.3 mb - 0.00 in0.0 mm 0.00 in0.0 mm